Latest Weather Observations for Cape Grim

IDT60801

Issued at 9:02 am EDT Thursday 2 April 2015 (issued every 30 minutes, with the page automatically refreshed every 10 minutes)

About weather observations | Map of weather stations | Latest weather observations for TAS | Other Formats
Station Details ID: 091331 Name: CAPE GRIM Lat: -40.68 Lon: 144.69 Height: 86.0 m
Data from the previous 72 hours. | See also: Recent months at Cape Grim
Date/Time
EDT
Temp
°C
App
Temp
°C
Dew
Point
Rel
Hum
%
Delta-T
°C
Wind Press
QNH
hPa
Press
MSL
hPa
Rain
since 9 am
mm
Dir
 
Spd
km/h
Gust
km/h
Spd
kts
Gust
kts
02/09:00am 11.5 -1.4 7.8 78 1.8 SW 65 91 35 49 1017.6 - -
02/08:30am 10.9 -2.5 8.7 86 1.1 SW 69 98 37 53 1017.2 1017.2 11.2
02/08:00am 9.9 -2.8 8.3 90 0.8 SW 65 95 35 51 1016.8 1016.8 11.0
02/07:30am 10.9 -1.5 9.5 91 0.7 SSW 65 102 35 55 1016.0 1016.0 10.0
02/07:00am 9.9 -3.4 9.0 94 0.4 SW 69 91 37 49 1015.3 1015.3 8.2
02/06:30am 9.8 -3.3 8.4 91 0.7 SW 67 87 36 47 1014.6 1014.6 5.0
02/05:33am 11.0 1.2 8.6 85 1.2 SW 50 69 27 37 1013.6 1013.6 1.0
02/05:30am 11.2 1.0 8.4 83 1.4 SW 52 69 28 37 1013.5 1013.5 1.0
02/05:00am 11.6 1.0 8.6 82 1.5 SSW 54 76 29 41 1012.9 1012.9 1.0
02/04:30am 11.5 0.3 8.5 82 1.5 SSW 57 82 31 44 1012.4 1012.4 1.0
02/04:00am 11.5 -1.0 9.2 86 1.2 SW 65 89 35 48 1011.9 1011.9 1.0
02/03:41am 11.7 -2.5 9.4 86 1.2 SW 74 96 40 52 1011.4 1011.3 0.8
02/03:30am 11.1 -3.9 9.0 87 1.0 SW 78 102 42 55 1011.0 1010.9 0.6
02/03:00am 12.3 -1.2 10.4 88 1.0 SW 72 93 39 50 1010.7 1010.6 0.6
02/02:52am 12.4 -0.7 10.6 89 0.9 SW 70 91 38 49 1010.6 1010.5 0.6
02/02:30am 12.7 -0.2 11.1 90 0.8 SW 70 85 38 46 1010.2 1010.1 0.6
02/02:25am 13.1 1.2 11.5 90 0.9 SW 65 82 35 44 1010.3 1010.2 0.6
02/02:08am 13.4 4.0 11.6 89 1.0 SW 52 70 28 38 1010.3 1010.2 0.6
02/02:00am 13.7 5.5 11.7 88 1.1 SW 46 72 25 39 1010.2 1010.1 0.6
02/01:51am 13.9 7.8 11.8 87 1.1 WSW 35 72 19 39 1010.1 1010.0 0.6
02/01:34am 14.4 8.5 12.3 87 1.1 W 35 54 19 29 1010.1 1010.0 0.6
02/01:30am 14.4 8.5 12.3 87 1.1 W 35 52 19 28 1010.0 1009.9 0.6
02/01:04am 14.4 9.5 12.6 89 1.0 W 30 50 16 27 1010.0 1009.9 0.6
02/01:00am 14.5 9.7 12.9 90 0.9 W 30 43 16 23 1010.0 1009.9 0.6
02/12:48am 14.7 9.9 12.9 89 1.0 W 30 54 16 29 1010.1 1010.0 0.6
02/12:30am 15.1 10.0 13.1 88 1.1 W 32 46 17 25 1010.1 1010.0 0.6
02/12:00am 15.1 10.4 13.3 89 1.0 W 30 41 16 22 1010.0 1010.0 0.6
 
Date/Time
EDT
Temp
°C
App
Temp
°C
Dew
Point
Rel
Hum
%
Delta-T
°C
Wind Press
QNH
hPa
Press
MSL
hPa
Rain
since 9 am
mm
Dir
 
Spd
km/h
Gust
km/h
Spd
kts
Gust
kts
01/11:30pm 15.8 10.8 14.0 89 1.0 W 33 44 18 24 1010.0 1009.9 0.6
01/11:00pm 15.8 9.7 14.0 89 1.0 W 39 61 21 33 1009.9 1009.8 0.4
01/10:57pm 15.8 9.4 14.2 90 0.9 W 41 61 22 33 1009.9 1009.8 0.4
01/10:47pm 15.6 10.2 14.0 90 0.9 W 35 54 19 29 1009.3 1009.2 0.4
01/10:30pm 16.0 10.4 14.4 90 0.9 W 37 50 20 27 1009.9 1009.8 0.4
01/10:00pm 16.3 8.8 14.0 86 1.3 WNW 46 61 25 33 1009.8 1009.7 0.0
01/09:58pm 16.3 8.8 14.0 86 1.3 WNW 46 61 25 33 1009.9 1009.8 0.0
01/09:34pm 17.1 11.5 13.2 78 2.2 WNW 35 54 19 29 1009.9 1009.8 0.0
01/09:30pm 17.2 11.6 13.3 78 2.2 WNW 35 43 19 23 1010.0 1009.9 0.0
01/09:00pm 18.5 12.3 12.5 68 3.4 WNW 37 50 20 27 1010.0 1009.9 0.0
01/08:54pm 18.4 13.1 12.6 69 3.2 NW 32 50 17 27 1010.0 1009.9 0.0
01/08:50pm 18.4 13.8 12.4 68 3.3 NW 28 39 15 21 1009.9 1009.8 0.0
01/08:30pm 17.7 15.7 12.6 72 2.8 NNW 15 19 8 10 1009.2 1009.1 0.0
01/08:00pm 16.9 16.3 12.4 75 2.5 NE 7 11 4 6 1008.5 1008.4 0.0
01/07:30pm 17.9 14.5 12.6 71 3.0 WNW 22 32 12 17 1009.3 1009.2 0.0
01/07:00pm 18.3 15.7 13.2 72 2.9 WNW 19 22 10 12 1009.2 1009.1 0.0
01/06:30pm 18.3 16.1 13.4 73 2.8 WNW 17 22 9 12 1009.6 1009.5 0.0
01/06:00pm 18.6 16.0 13.9 74 2.7 NW 20 30 11 16 1009.3 1009.3 0.0
01/05:30pm 18.5 15.3 14.2 76 2.5 WNW 24 32 13 17 1010.1 1010.0 0.0
01/05:00pm 18.2 14.5 13.9 76 2.5 NNW 26 32 14 17 1009.9 1009.8 0.0
01/04:30pm 18.5 14.4 13.8 74 2.7 N 28 35 15 19 1009.7 1009.6 0.0
01/04:00pm 19.7 12.4 12.7 64 4.0 N 43 54 23 29 1009.4 1009.3 0.0
01/03:30pm 19.4 12.1 12.7 65 3.8 N 43 57 23 31 1009.9 1009.8 0.0
01/03:08pm 19.9 12.5 12.4 62 4.2 N 43 61 23 33 1010.2 1010.1 0.0
01/03:00pm 19.6 12.7 12.8 65 3.9 N 41 54 22 29 1010.4 1010.3 0.0
01/02:30pm 19.3 11.9 12.6 65 3.8 N 43 52 23 28 1011.0 1010.9 0.0
01/02:00pm 19.4 13.7 13.1 67 3.6 N 35 48 19 26 1011.7 1011.7 0.0
01/01:30pm 18.9 14.7 13.5 71 3.1 N 28 41 15 22 1012.7 1012.7 0.0
01/01:07pm 19.0 14.8 13.4 70 3.2 NE 28 46 15 25 1013.1 1013.1 0.0
01/01:00pm 19.7 16.1 14.1 70 3.2 NE 26 46 14 25 1013.2 1013.2 0.0
01/12:59pm 19.4 15.1 13.1 67 3.6 NE 28 46 15 25 1013.2 1013.2 0.0
01/12:30pm 21.1 17.9 15.4 70 3.4 NE 26 37 14 20 1013.7 1013.7 0.0
01/12:00pm 20.2 17.1 17.4 84 1.7 ENE 30 35 16 19 1014.2 1014.2 0.0
01/11:30am 18.7 14.9 16.8 89 1.1 ENE 32 37 17 20 1014.7 1014.7 0.0
01/11:00am 17.3 12.7 16.2 93 0.7 ENE 35 41 19 22 1015.0 1015.0 0.0
01/10:30am 17.2 12.6 16.2 94 0.6 ENE 35 43 19 23 1015.3 1015.2 0.0
01/10:28am 17.2 12.6 16.2 94 0.6 ENE 35 43 19 23 1015.4 1015.3 0.0
01/10:00am 17.1 12.6 16.3 95 0.5 ENE 35 43 19 23 1015.8 1015.7 0.0
01/09:30am 16.5 11.7 15.7 95 0.5 ENE 35 43 19 23 1016.1 1016.0 0.0
01/09:00am 16.3 10.7 15.5 95 0.5 ENE 39 44 21 24 1016.0 1015.9 -
01/08:30am 16.1 10.4 15.3 95 0.5 ENE 39 46 21 25 1016.1 1016.0 -
01/08:00am 16.0 10.7 15.2 95 0.5 ENE 37 44 20 24 1016.4 1016.3 -
01/07:30am 15.9 10.5 15.1 95 0.5 ENE 37 44 20 24 1016.3 1016.2 -
01/07:00am 15.8 11.2 15.0 95 0.5 ENE 33 39 18 21 1016.7 1016.6 -
01/06:30am 15.6 10.9 14.8 95 0.5 ENE 33 41 18 22 1016.8 1016.7 -
01/06:00am 15.6 10.8 14.6 94 0.6 ENE 33 39 18 21 1017.1 1017.0 -
01/05:30am 15.5 10.9 14.5 94 0.6 ENE 32 37 17 20 1017.4 1017.3 -
01/05:00am 15.4 10.7 14.4 94 0.6 ENE 32 39 17 21 1017.6 1017.5 -
01/04:30am 15.1 10.7 14.1 94 0.6 NE 30 35 16 19 1018.1 1017.9 -
01/04:05am 15.1 11.5 14.1 94 0.6 NE 26 32 14 17 1018.6 1018.5 -
01/04:00am 15.2 11.6 14.2 94 0.6 NE 26 30 14 16 1018.8 1018.7 -
01/03:30am 14.8 11.0 13.7 93 0.6 NE 26 30 14 16 1019.3 1019.2 -
01/03:00am 14.7 10.9 13.6 93 0.6 NE 26 30 14 16 1019.8 1019.7 0.0
01/02:30am 14.2 10.6 12.9 92 0.7 NE 24 28 13 15 1020.2 1020.1 -
01/02:00am 14.2 10.9 12.9 92 0.7 NE 22 26 12 14 1020.6 1020.5 -
01/01:30am 13.9 10.9 12.6 92 0.7 NE 20 24 11 13 1021.1 1021.0 -
01/01:00am 13.7 10.2 12.3 91 0.8 NE 22 24 12 13 1021.3 1021.2 -
01/12:30am 13.8 9.6 12.4 91 0.8 NE 26 30 14 16 1021.4 1021.3 -
01/12:00am 13.5 9.6 12.1 91 0.8 NE 24 28 13 15 1021.7 1021.6 -
 
Date/Time
EDT
Temp
°C
App
Temp
°C
Dew
Point
Rel
Hum
%
Delta-T
°C
Wind Press
QNH
hPa
Press
MSL
hPa
Rain
since 9 am
mm
Dir
 
Spd
km/h
Gust
km/h
Spd
kts
Gust
kts
31/11:30pm 12.6 9.4 11.2 91 0.7 NE 19 20 10 11 1022.1 1022.0 -
31/11:00pm 12.2 9.2 10.6 90 0.8 NE 17 19 9 10 1022.4 1022.3 -
31/10:30pm 11.9 8.4 10.1 89 0.9 ENE 19 20 10 11 1022.5 1022.4 -
31/10:00pm 11.8 8.5 9.7 87 1.1 ENE 17 17 9 9 1022.6 1022.5 -
31/09:30pm 12.6 10.3 10.5 87 1.1 ENE 13 13 7 7 1022.9 1022.8 -
31/09:00pm 12.7 10.7 10.2 85 1.3 ENE 11 13 6 7 1022.9 1022.8 -
31/08:30pm 12.9 10.9 10.3 84 1.4 ENE 11 13 6 7 1023.1 1023.0 -
31/08:00pm 14.3 13.5 11.1 81 1.7 SSW 6 7 3 4 1023.1 1023.0 -
31/07:30pm 14.6 15.0 11.2 80 1.8 CALM 0 0 0 0 1023.0 1022.9 -
31/07:00pm 14.8 13.9 11.4 80 1.8 SW 7 11 4 6 1023.0 1022.9 -
31/06:30pm 14.9 14.2 11.3 79 1.9 WSW 6 9 3 5 1022.9 1022.8 -
31/06:00pm 15.0 14.0 11.0 77 2.1 WSW 7 9 4 5 1023.0 1022.9 -
31/05:30pm 15.2 14.2 11.0 76 2.2 WSW 7 9 4 5 1022.9 1022.8 -
31/05:00pm 15.7 14.3 10.9 73 2.6 W 9 11 5 6 1023.0 1022.9 -
31/04:30pm 16.4 15.1 11.3 72 2.8 W 9 13 5 7 1022.9 1022.8 0.0
31/04:00pm 16.3 15.6 11.9 75 2.4 WSW 7 11 4 6 1023.3 1023.2 0.0
31/03:30pm 16.0 15.1 11.4 74 2.5 WSW 7 13 4 7 1023.7 1023.6 0.0
31/03:00pm 16.2 15.1 11.8 75 2.4 SW 9 13 5 7 1024.0 1023.9 0.0
31/02:30pm 16.2 13.4 11.4 73 2.6 WNW 17 20 9 11 1024.3 1024.2 0.0
31/02:00pm 16.2 14.0 12.0 76 2.3 WNW 15 20 8 11 1024.7 1024.6 0.0
31/01:30pm 15.7 13.3 11.3 75 2.4 WNW 15 19 8 10 1025.0 1024.9 0.0
31/01:00pm 15.7 13.6 11.3 75 2.4 W 13 17 7 9 1025.3 1025.2 0.0
31/12:30pm 16.0 13.5 11.2 73 2.6 WNW 15 17 8 9 1025.5 1025.4 0.0
31/12:00pm 15.9 13.9 11.5 75 2.4 WNW 13 17 7 9 1025.7 1025.6 0.0
31/11:30am 15.7 13.3 11.3 75 2.4 NW 15 20 8 11 1025.9 1025.8 0.0
31/11:00am 15.4 12.9 11.2 76 2.2 NW 15 22 8 12 1026.0 1025.9 0.0
31/10:30am 15.3 12.9 11.5 78 2.1 WNW 15 19 8 10 1026.0 1025.9 0.0
31/10:00am 15.0 12.5 11.2 78 2.0 WNW 15 20 8 11 1025.9 1025.8 0.0
31/09:30am 15.1 12.6 11.1 77 2.1 W 15 20 8 11 1026.0 1025.9 0.0
31/09:00am 15.1 13.3 10.9 76 2.2 W 11 17 6 9 1026.0 1025.9 0.0
31/08:30am 14.9 13.5 10.9 77 2.1 W 9 13 5 7 1025.8 1025.7 0.0
31/08:00am 14.8 13.7 10.8 77 2.1 WSW 7 13 4 7 1025.3 1025.2 0.0
31/07:30am 14.8 12.1 10.2 74 2.4 WNW 15 20 8 11 1025.3 1025.2 0.0
31/07:00am 14.9 12.2 10.5 75 2.3 W 15 22 8 12 1025.0 1024.9 0.0
31/06:30am 14.7 12.0 10.3 75 2.3 W 15 24 8 13 1024.8 1024.7 0.0
31/06:00am 14.6 12.3 10.6 77 2.1 W 13 17 7 9 1024.5 1024.4 0.0
31/05:30am 14.7 12.2 11.1 79 1.9 W 15 22 8 12 1024.4 1024.3 0.0
31/05:00am 14.7 12.8 11.8 83 1.6 WSW 13 20 7 11 1024.3 1024.2 0.0
31/04:30am 14.9 13.4 12.0 83 1.6 WSW 11 15 6 8 1024.4 1024.3 0.0
31/04:00am 15.1 13.3 12.2 83 1.6 WSW 13 24 7 13 1024.5 1024.4 0.0
31/03:30am 15.3 12.0 11.7 79 2.0 W 20 30 11 16 1024.6 1024.5 0.0
31/03:00am 15.1 11.7 11.1 77 2.1 WNW 20 28 11 15 1024.9 1024.8 0.0
31/02:30am 14.6 11.9 11.6 82 1.6 WNW 17 22 9 12 1024.7 1024.6 0.0
31/02:00am 14.9 11.9 11.9 82 1.6 WNW 19 22 10 12 1024.9 1024.8 0.0
31/01:30am 14.9 12.5 11.5 80 1.8 WNW 15 19 8 10 1024.8 1024.7 0.0
31/01:00am 15.7 13.6 12.3 80 1.9 W 15 20 8 11 1025.0 1024.9 0.0
31/12:30am 15.1 12.4 11.7 80 1.8 W 17 22 9 12 1025.0 1024.9 0.0
31/12:00am 15.0 13.1 13.0 88 1.1 WNW 15 17 8 9 1025.2 1025.1 0.0
 
Date/Time
EDT
Temp
°C
App
Temp
°C
Dew
Point
Rel
Hum
%
Delta-T
°C
Wind Press
QNH
hPa
Press
MSL
hPa
Rain
since 9 am
mm
Dir
 
Spd
km/h
Gust
km/h
Spd
kts
Gust
kts
30/11:30pm 14.9 14.1 12.8 87 1.2 WNW 9 11 5 6 1025.2 1025.1 0.0
30/11:00pm 14.9 14.0 12.6 86 1.3 WNW 9 11 5 6 1025.2 1025.1 0.0
30/10:51pm 15.0 14.1 12.7 86 1.3 W 9 13 5 7 1025.3 1025.2 0.0
30/10:38pm 14.9 13.6 12.6 86 1.3 W 11 15 6 8 1025.3 1025.2 0.0
30/10:30pm 14.9 14.0 12.6 86 1.3 WNW 9 13 5 7 1025.3 1025.2 0.0
30/10:00pm 15.2 14.0 12.7 85 1.4 W 11 15 6 8 1025.2 1025.1 0.0
30/09:30pm 15.2 14.6 12.3 83 1.6 W 7 13 4 7 1025.1 1025.0 0.0
30/09:00pm 15.2 14.2 12.3 83 1.6 WSW 9 15 5 8 1025.0 1024.9 0.0
30/08:30pm 15.2 13.4 12.1 82 1.7 W 13 19 7 10 1024.8 1024.7 0.0
30/08:00pm 15.2 13.4 12.1 82 1.7 WSW 13 19 7 10 1024.4 1024.3 0.0
30/07:30pm 15.1 12.9 12.1 82 1.6 W 15 26 8 14 1024.2 1024.1 0.0
30/07:00pm 14.8 12.1 11.8 82 1.6 WSW 17 30 9 16 1023.9 1023.8 0.0
30/06:30pm 14.9 11.9 11.9 82 1.6 W 19 28 10 15 1023.8 1023.7 0.0
30/06:00pm 15.4 12.3 12.2 81 1.7 W 20 28 11 15 1023.5 1023.4 0.0
30/05:30pm 15.6 12.6 12.0 79 2.0 W 19 30 10 16 1023.3 1023.2 0.0
30/05:00pm 15.7 12.4 11.7 77 2.2 W 20 32 11 17 1023.2 1023.1 0.0
30/04:30pm 15.8 12.2 11.8 77 2.2 W 22 32 12 17 1023.1 1023.0 0.0
30/04:00pm 16.0 12.8 11.8 76 2.3 W 20 30 11 16 1023.0 1022.9 0.0
30/03:30pm 16.1 12.8 11.5 74 2.5 W 20 30 11 16 1023.0 1022.9 0.0
30/03:00pm 15.6 12.4 11.8 78 2.1 W 20 32 11 17 1023.0 1022.9 0.0
30/02:30pm 15.4 11.8 12.0 80 1.9 W 22 35 12 19 1022.9 1022.8 0.0
30/02:00pm 15.9 12.5 12.6 81 1.8 W 22 33 12 18 1022.9 1022.8 0.0
30/01:30pm 16.0 12.7 12.7 81 1.8 W 22 35 12 19 1023.1 1023.0 0.0
30/01:00pm 16.0 10.5 11.8 76 2.3 W 32 41 17 22 1023.0 1022.9 0.0
30/12:30pm 16.5 12.2 13.2 81 1.9 W 28 37 15 20 1023.0 1022.9 0.0
30/12:00pm 16.0 11.9 12.7 81 1.8 W 26 32 14 17 1023.1 1023.0 0.0
30/11:30am 16.1 11.6 12.7 80 1.9 W 28 35 15 19 1023.1 1023.0 0.0
30/11:00am 15.9 12.2 12.8 82 1.7 W 24 32 13 17 1023.1 1023.0 0.0
30/10:30am 15.7 12.1 13.2 85 1.4 W 24 33 13 18 1022.8 1022.7 0.0
30/10:00am 15.7 12.2 13.5 87 1.2 W 24 33 13 18 1022.7 1022.6 0.0
30/09:34am 15.3 11.5 13.5 89 1.0 W 26 35 14 19 1022.2 1022.1 0.0
30/09:30am 15.0 11.1 13.2 89 1.0 W 26 35 14 19 1022.1 1022.0 0.0
30/09:10am 15.4 10.9 13.8 90 0.9 W 30 37 16 20 1022.0 1021.9 0.0

Other Formats:

Comma delimited format used in spreadsheet applications
http://www.bom.gov.au/fwo/IDT60801/IDT60801.95954.axf

JavaScript Object Notation format (JSON) in row-major order
http://www.bom.gov.au/fwo/IDT60801/IDT60801.95954.json